Portada
METAR-TAF:

METAR-TAF

Aeropuertos :

Agaña, Guam, Estados Unidos

Aeropuerto Internacional Antonio B. Won Pat

latitud: 13-29N, longitud: 144-48E, altitud: 91 m

Observación

El informe se hizo hace 57 minutos, a las 00:54 UTC
Viento 12 kt del este
Temperatura 31°C
Humedad 75%
Presión 1014 hPa
Visibilidad: 16.1 km
Escasas nubes a una altura de 2100 ft
Nubes dispersas a una altura de 2800 ft
Nubes dispersas a una altura de 3600 ft

METAR: PGUM 280054Z 10012KT 10SM FEW021 SCT028 SCT036 31/26 A2993 RMK AO2 SLP126 T03060256 $

Hora: 11:51 (01:51 UTC)

Pronóstico

El informe se hizo hace 2 horas y 25 minutos, a las 23:26 UTC
Pronóstico válido del 28 a las 00 UTC al 29 a las 06 UTC
Viento 12 kt del este
Visibilidad: 10 km
Escasas nubes a una altura de 2000 ft
Nubes dispersas a una altura de 5000 ft
Cielo nuboso a una altura de 15000 ft
chaparrones en las proximidades

TAF: PGUM 272326Z 2800/2906 10012KT P6SM VCSH FEW020 SCT050 BKN150

Observaciones y pronósticos meteorológicos de más de 4000 aeropuertos (mensajes METAR y TAF).

Los puntos amarillos y rojos representan las estaciones disponibles.

Ponga el ratón en el punto deseado para ver el nombre de la estación.

Haga clic para ver las observaciones y los pronósticos meteorológicos.

Para cambiar el mapa : haga clic en los botones verdes con una cruz de color negro para hacer un zoom, en el botón verde con un guión para alejar o en las flechas verdes para mapas adyacentes.


METAR-TAF: